Time;durP1;ratioP1;P1;durP2;ratioP2;P2;SDS_P1;SDS_P2;PMS_P1;PMS_P2;Temp;Humidity;BMP_temperature;BMP_pressure;BME280_temperature;BME280_humidity;BME280_pressure;Samples;Min_cycle;Max_cycle;Signal;HPM_P1;HPM_P2
2021/08/10 00:02:13;;;;;;;11.18;3.05;;;;;;;15.95;74.78;101599.84;5052116;28;20025;-63
2021/08/10 00:04:38;;;;;;;11.35;3.33;;;;;;;15.96;74.83;101590.88;5052108;28;20513;-63
2021/08/10 00:07:03;;;;;;;7.40;3.10;;;;;;;15.96;75.00;101592.69;5051844;28;20064;-63
2021/08/10 00:09:29;;;;;;;9.63;3.08;;;;;;;15.94;75.17;101598.13;5051685;28;20029;-63
2021/08/10 00:11:58;;;;;;;11.23;3.25;;;;;;;16.00;74.94;101599.59;5051887;28;20032;-63
2021/08/10 00:14:23;;;;;;;10.13;2.85;;;;;;;16.01;74.96;101601.28;5052029;28;20078;-63
2021/08/10 00:16:48;;;;;;;8.73;2.78;;;;;;;16.04;74.85;101601.16;5051882;28;20029;-63
2021/08/10 00:19:14;;;;;;;9.40;2.70;;;;;;;16.04;74.75;101603.81;5051572;28;20031;-63
2021/08/10 00:21:39;;;;;;;11.98;3.05;;;;;;;16.02;75.24;101601.25;5052204;28;20036;-63
2021/08/10 00:24:05;;;;;;;8.18;2.78;;;;;;;16.04;74.82;101588.63;5051905;28;20029;-63
2021/08/10 00:26:30;;;;;;;8.63;2.70;;;;;;;16.03;75.20;101589.56;5051941;28;20533;-63
2021/08/10 00:28:56;;;;;;;11.27;2.97;;;;;;;16.05;74.85;101594.84;5053221;28;20037;-62
2021/08/10 00:31:21;;;;;;;9.05;2.70;;;;;;;16.06;75.17;101593.88;5058895;28;20532;-63
2021/08/10 00:33:46;;;;;;;7.28;2.70;;;;;;;16.05;75.20;101590.38;5058514;28;20455;-64
2021/08/10 00:36:12;;;;;;;12.15;3.38;;;;;;;16.05;75.74;101592.19;5058519;28;20040;-63
2021/08/10 00:38:38;;;;;;;7.78;2.92;;;;;;;16.02;75.62;101587.00;5057958;28;20025;-64
2021/08/10 00:41:04;;;;;;;11.05;3.63;;;;;;;16.00;75.82;101589.75;5058159;28;20017;-64
2021/08/10 00:43:39;;;;;;;12.20;3.35;;;;;;;16.00;76.11;101583.56;5040290;28;20066;-63
2021/08/10 00:46:07;;;;;;;10.77;3.05;;;;;;;16.00;75.59;101592.44;5058581;28;20028;-63
2021/08/10 00:48:33;;;;;;;13.07;3.70;;;;;;;16.01;75.63;101579.94;5058078;28;20032;-65
2021/08/10 00:50:59;;;;;;;10.77;4.07;;;;;;;16.02;75.47;101577.19;5057777;28;20386;-64
2021/08/10 00:53:25;;;;;;;12.20;3.40;;;;;;;16.03;76.09;101586.06;5058220;28;20041;-63
2021/08/10 00:55:50;;;;;;;13.38;3.50;;;;;;;16.05;75.53;101587.69;5058619;28;20024;-63
2021/08/10 00:58:16;;;;;;;9.40;3.08;;;;;;;16.03;76.17;101583.38;5058171;28;20029;-63
2021/08/10 01:00:41;;;;;;;17.55;4.10;;;;;;;16.00;75.99;101584.41;5057830;28;20471;-63
2021/08/10 01:03:07;;;;;;;10.80;3.65;;;;;;;15.98;76.29;101577.44;5040444;28;20502;-64
2021/08/10 01:05:32;;;;;;;16.40;3.60;;;;;;;15.99;76.43;101579.16;5058111;28;20052;-64
2021/08/10 01:08:37;;;;;;;9.05;2.95;;;;;;;15.95;76.53;101578.47;5058574;28;20065;-64
2021/08/10 01:11:09;;;;;;;12.98;3.50;;;;;;;15.97;76.56;101575.72;5057587;28;20051;-64
2021/08/10 01:13:41;;;;;;;14.25;3.85;;;;;;;15.95;76.29;101580.28;5038056;28;20021;-64
2021/08/10 01:16:12;;;;;;;;;;;;;;;15.91;76.46;101574.25;5039036;28;20079;-65
2021/08/10 01:18:50;;;;;;;9.30;3.60;;;;;;;15.87;76.95;101573.56;5038657;28;19909;-64
2021/08/10 01:21:33;;;;;;;10.25;3.75;;;;;;;15.87;76.96;101583.41;5053051;28;20071;-65
2021/08/10 01:24:04;;;;;;;12.55;3.55;;;;;;;15.85;77.11;101582.59;5038223;28;20030;-64
2021/08/10 01:26:45;;;;;;;8.52;3.20;;;;;;;15.83;76.98;101579.16;5038116;28;20365;-64
2021/08/10 01:29:13;;;;;;;12.15;3.53;;;;;;;15.84;76.95;101573.75;5038170;28;20037;-65
2021/08/10 01:31:43;;;;;;;7.72;3.08;;;;;;;15.83;77.36;101572.00;5050701;28;20371;-64
2021/08/10 01:34:15;;;;;;;8.40;3.33;;;;;;;15.84;77.47;101573.75;5057995;28;20043;-63
2021/08/10 01:36:43;;;;;;;12.50;3.50;;;;;;;15.83;77.17;101571.13;5056775;28;20112;-63
2021/08/10 01:39:09;;;;;;;10.40;3.47;;;;;;;15.85;76.92;101569.25;5038078;28;20032;-64
2021/08/10 01:41:36;;;;;;;11.40;4.03;;;;;;;15.87;77.07;101568.22;5038890;28;20030;-64
2021/08/10 01:44:04;;;;;;;16.13;4.55;;;;;;;15.87;77.31;101573.56;5034840;28;20049;-64
2021/08/10 01:46:31;;;;;;;16.27;3.88;;;;;;;15.86;77.39;101573.66;5034864;28;20494;-64
2021/08/10 01:48:59;;;;;;;12.93;3.90;;;;;;;15.86;77.43;101562.97;5034851;28;20028;-64
2021/08/10 01:51:27;;;;;;;8.75;3.40;;;;;;;15.85;77.38;101570.09;5039995;28;20025;-63
2021/08/10 01:53:54;;;;;;;12.98;4.50;;;;;;;15.87;77.28;101576.22;5054413;28;20033;-63
2021/08/10 01:56:20;;;;;;;10.95;4.30;;;;;;;15.88;77.14;101574.41;5054680;28;20061;-64
2021/08/10 01:58:47;;;;;;;9.45;3.58;;;;;;;15.86;77.69;101574.50;5035939;28;20137;-64
2021/08/10 02:01:14;;;;;;;11.50;4.40;;;;;;;15.84;77.53;101586.22;5053397;28;20383;-63
2021/08/10 02:03:41;;;;;;;10.27;4.15;;;;;;;15.87;77.95;101583.41;5054168;28;20033;-63
2021/08/10 02:06:07;;;;;;;9.90;3.60;;;;;;;15.88;77.76;101575.28;5054092;28;20068;-62
2021/08/10 02:08:33;;;;;;;10.90;3.95;;;;;;;15.91;77.73;101589.41;5054342;28;20482;-63
2021/08/10 02:11:00;;;;;;;10.80;3.97;;;;;;;15.91;77.49;101578.72;5054257;28;20021;-63
2021/08/10 02:13:25;;;;;;;10.55;3.85;;;;;;;15.91;77.61;101584.06;5053429;28;20029;-62
2021/08/10 02:15:52;;;;;;;12.75;4.63;;;;;;;15.86;80.55;101587.84;5053915;28;20107;-62
2021/08/10 02:18:19;;;;;;;12.82;4.15;;;;;;;15.81;81.58;101597.03;5053802;28;20447;-63
2021/08/10 02:20:47;;;;;;;12.48;4.18;;;;;;;15.75;81.29;101592.03;5054296;28;20025;-62
2021/08/10 02:23:15;;;;;;;11.80;4.05;;;;;;;15.68;81.69;101586.19;5053654;28;20037;-62
2021/08/10 02:25:43;;;;;;;12.68;4.72;;;;;;;15.61;81.86;101582.09;5053762;28;20028;-62
2021/08/10 02:28:11;;;;;;;17.77;5.50;;;;;;;15.57;83.04;101594.75;5053692;28;20025;-63
2021/08/10 02:30:43;;;;;;;13.02;5.05;;;;;;;15.50;83.17;101593.34;5053453;28;20025;-64
2021/08/10 02:33:09;;;;;;;12.32;4.68;;;;;;;15.36;84.62;101589.63;5053035;28;20043;-64
2021/08/10 02:35:36;;;;;;;14.13;5.53;;;;;;;15.28;85.40;101589.19;5051444;28;20460;-63
2021/08/10 02:38:05;;;;;;;16.25;5.47;;;;;;;15.22;85.65;101595.69;5031282;28;20427;-64
2021/08/10 02:40:31;;;;;;;15.15;5.25;;;;;;;15.17;85.85;101599.53;5033091;28;20034;-64
2021/08/10 02:42:59;;;;;;;14.23;5.60;;;;;;;15.17;86.59;101592.38;5033537;28;20026;-63
2021/08/10 02:45:24;;;;;;;15.68;5.13;;;;;;;15.16;86.57;101597.81;5051321;28;20528;-63
2021/08/10 02:47:57;;;;;;;10.32;5.15;;;;;;;15.14;86.72;101595.22;5052940;28;20181;-63
2021/08/10 02:50:27;;;;;;;12.88;5.60;;;;;;;15.12;86.72;101591.78;5053121;28;20036;-63
2021/08/10 02:52:53;;;;;;;15.80;5.45;;;;;;;15.13;87.14;101595.28;5052994;28;20067;-63
2021/08/10 02:55:19;;;;;;;10.85;5.38;;;;;;;15.11;87.16;101594.53;5052943;28;20410;-64
2021/08/10 02:57:55;;;;;;;19.67;6.43;;;;;;;15.08;87.47;101593.72;5052444;28;20569;-64
2021/08/10 03:00:22;;;;;;;11.52;5.50;;;;;;;15.06;87.30;101592.97;5053351;28;20378;-63
2021/08/10 03:02:52;;;;;;;13.23;5.68;;;;;;;15.06;86.49;101594.75;5052696;28;20024;-64
2021/08/10 03:05:29;;;;;;;12.93;5.53;;;;;;;15.06;86.83;101602.75;5052120;28;20052;-63
2021/08/10 03:07:57;;;;;;;15.70;4.95;;;;;;;15.03;86.01;101595.78;5052520;28;20379;-64
2021/08/10 03:10:25;;;;;;;13.25;5.85;;;;;;;15.03;86.42;101590.44;5052629;28;20090;-64
2021/08/10 03:12:52;;;;;;;16.52;5.75;;;;;;;15.00;86.80;101593.28;5053032;28;20075;-63
2021/08/10 03:15:23;;;;;;;18.33;5.55;;;;;;;14.98;86.72;101594.31;5052406;28;20029;-63
2021/08/10 03:17:52;;;;;;;16.50;5.93;;;;;;;15.01;86.52;101587.00;5052269;28;20033;-64
2021/08/10 03:20:20;;;;;;;20.20;6.35;;;;;;;15.00;86.37;101595.06;5052967;28;20471;-65
2021/08/10 03:22:47;;;;;;;14.35;5.85;;;;;;;14.99;86.43;101604.03;5053065;28;20106;-65
2021/08/10 03:25:14;;;;;;;14.07;5.70;;;;;;;14.97;86.30;101603.25;5052848;28;20061;-65
2021/08/10 03:27:41;;;;;;;12.40;5.82;;;;;;;14.91;86.81;101596.38;5052670;28;20140;-65
2021/08/10 03:30:08;;;;;;;14.80;6.13;;;;;;;14.90;86.54;101597.34;5052626;28;20029;-65
2021/08/10 03:32:35;;;;;;;16.45;6.30;;;;;;;14.88;86.80;101605.41;5052589;28;20071;-63
2021/08/10 03:35:02;;;;;;;17.38;6.20;;;;;;;14.88;86.95;101594.75;5052412;28;20029;-64
2021/08/10 03:37:29;;;;;;;17.33;6.80;;;;;;;14.89;86.89;101603.63;5052439;28;20032;-64
2021/08/10 03:39:55;;;;;;;18.98;6.45;;;;;;;14.87;86.66;101595.72;5052380;28;20029;-65
2021/08/10 03:42:21;;;;;;;16.63;6.93;;;;;;;14.83;86.73;101599.44;5052807;28;20516;-65
2021/08/10 03:44:46;;;;;;;15.30;6.90;;;;;;;14.81;86.49;101601.34;5052166;28;20087;-65
2021/08/10 03:47:15;;;;;;;19.25;7.00;;;;;;;14.82;86.57;101599.53;5052218;28;20036;-64
2021/08/10 03:49:41;;;;;;;17.08;6.95;;;;;;;14.79;86.83;101605.03;5051981;28;20123;-64
2021/08/10 03:52:10;;;;;;;17.88;7.60;;;;;;;14.78;86.69;101604.16;5050069;28;20037;-66
2021/08/10 03:54:36;;;;;;;18.58;7.20;;;;;;;14.76;87.05;101600.72;5052111;28;20058;-64
2021/08/10 03:57:02;;;;;;;15.70;7.25;;;;;;;14.71;87.21;101605.41;5051386;28;20025;-64
2021/08/10 03:59:28;;;;;;;19.65;7.18;;;;;;;14.70;86.96;101603.69;5052234;28;20363;-65
2021/08/10 04:01:54;;;;;;;13.38;7.40;;;;;;;14.65;87.24;101598.56;5052094;28;20060;-65
2021/08/10 04:04:20;;;;;;;18.08;7.30;;;;;;;14.61;87.53;101610.31;5051160;28;20025;-64
2021/08/10 04:06:46;;;;;;;18.10;7.53;;;;;;;14.57;87.82;101600.75;5049768;28;20617;-64
2021/08/10 04:09:11;;;;;;;18.75;7.80;;;;;;;14.53;87.87;101604.50;5052442;28;20100;-64
2021/08/10 04:11:38;;;;;;;19.08;7.40;;;;;;;14.49;87.93;101606.44;5051897;28;20032;-65
2021/08/10 04:14:05;;;;;;;15.43;7.55;;;;;;;14.47;87.95;101600.31;5052099;28;20490;-65
2021/08/10 04:16:39;;;;;;;19.00;7.38;;;;;;;14.48;88.03;101603.88;5051806;28;20025;-64
2021/08/10 04:19:04;;;;;;;16.90;6.50;;;;;;;14.49;88.12;101602.91;5051719;28;20029;-63
2021/08/10 04:21:30;;;;;;;17.23;7.40;;;;;;;14.47;88.44;101599.47;5048485;28;20025;-64
2021/08/10 04:23:59;;;;;;;20.08;7.55;;;;;;;14.51;88.58;101604.56;5052137;28;20036;-64
2021/08/10 04:26:24;;;;;;;17.38;7.18;;;;;;;14.52;88.11;101592.97;5051735;28;20051;-64
2021/08/10 04:28:49;;;;;;;16.85;7.47;;;;;;;14.51;87.88;101599.22;5051469;28;20032;-64
2021/08/10 04:31:15;;;;;;;21.17;6.88;;;;;;;14.50;88.10;101602.84;5051444;28;20024;-65
2021/08/10 04:33:40;;;;;;;20.40;7.68;;;;;;;14.51;88.13;101601.03;5051793;28;20471;-64
2021/08/10 04:36:06;;;;;;;16.50;7.22;;;;;;;14.53;88.11;101608.03;5051097;28;20090;-63
2021/08/10 04:38:31;;;;;;;20.20;7.57;;;;;;;14.51;88.03;101609.88;5051196;28;20108;-65
2021/08/10 04:40:56;;;;;;;22.05;8.15;;;;;;;14.51;87.88;101609.88;5052035;28;20056;-64
2021/08/10 04:43:22;;;;;;;17.55;7.63;;;;;;;14.52;87.87;101603.63;5051600;28;20446;-64
2021/08/10 04:45:47;;;;;;;18.38;7.82;;;;;;;14.53;87.97;101608.03;5051758;28;20016;-63
2021/08/10 04:48:12;;;;;;;17.13;7.55;;;;;;;14.54;87.62;101607.09;5051848;28;20384;-64
2021/08/10 04:50:37;;;;;;;16.40;7.25;;;;;;;14.55;87.85;101610.59;5051218;28;20470;-62
2021/08/10 04:53:03;;;;;;;15.77;6.97;;;;;;;14.58;87.61;101610.47;5051336;28;20151;-64
2021/08/10 04:55:28;;;;;;;18.40;8.40;;;;;;;14.62;87.67;101608.53;5051602;28;20035;-63
2021/08/10 04:57:53;;;;;;;15.40;7.47;;;;;;;14.66;87.33;101600.31;5051798;28;20027;-64
2021/08/10 05:00:19;;;;;;;18.83;7.93;;;;;;;14.69;87.41;101610.84;5051341;28;20103;-63
2021/08/10 05:02:44;;;;;;;17.83;7.95;;;;;;;14.70;87.19;101611.69;5051627;28;20479;-66
2021/08/10 05:05:10;;;;;;;18.90;8.13;;;;;;;14.74;87.27;101616.81;5050620;28;20045;-64
2021/08/10 05:07:35;;;;;;;17.00;7.78;;;;;;;14.79;86.57;101621.88;5051349;28;20029;-64
2021/08/10 05:10:02;;;;;;;17.48;8.63;;;;;;;14.87;86.58;101619.72;5050986;28;20029;-64
2021/08/10 05:12:27;;;;;;;17.88;8.23;;;;;;;14.95;86.33;101614.00;5051334;28;20428;-64
2021/08/10 05:14:52;;;;;;;15.57;8.18;;;;;;;15.03;86.06;101614.44;5051959;28;20028;-64
2021/08/10 05:17:17;;;;;;;15.63;7.72;;;;;;;15.11;85.55;101624.72;5055244;28;20498;-64
2021/08/10 05:19:43;;;;;;;16.60;8.20;;;;;;;15.19;85.09;101627.88;5054901;28;20021;-65
2021/08/10 05:22:08;;;;;;;14.18;7.20;;;;;;;15.21;85.65;101617.97;5054789;28;20029;-65
2021/08/10 05:24:33;;;;;;;17.10;7.53;;;;;;;15.28;84.95;101613.19;5053514;28;20475;-64
2021/08/10 05:26:59;;;;;;;16.10;7.53;;;;;;;15.26;85.53;101614.22;5055014;28;20099;-64
2021/08/10 05:29:24;;;;;;;14.57;8.05;;;;;;;15.25;85.31;101608.00;5054878;28;20060;-63
2021/08/10 05:31:49;;;;;;;19.25;7.43;;;;;;;15.24;85.38;101604.47;5053952;28;20498;-64
2021/08/10 05:34:15;;;;;;;15.32;7.20;;;;;;;15.23;85.76;101616.09;5055062;28;20045;-65
2021/08/10 05:36:41;;;;;;;16.65;7.40;;;;;;;15.27;85.06;101613.25;5054232;28;20471;-65
2021/08/10 05:39:06;;;;;;;19.67;7.38;;;;;;;15.37;84.88;101618.03;5054660;28;20021;-65
2021/08/10 05:41:32;;;;;;;20.70;7.13;;;;;;;15.46;84.61;101623.81;5054685;28;20017;-65
2021/08/10 05:43:57;;;;;;;14.63;6.90;;;;;;;15.53;84.32;101628.75;5047868;28;20530;-62
2021/08/10 05:46:22;;;;;;;19.75;7.93;;;;;;;15.59;84.28;101629.38;5052733;28;20405;-63
2021/08/10 05:48:48;;;;;;;14.60;7.32;;;;;;;15.72;83.58;101633.13;5053820;28;20033;-61
2021/08/10 05:51:15;;;;;;;14.73;7.30;;;;;;;15.76;83.33;101633.81;5054475;28;20025;-65
2021/08/10 05:53:41;;;;;;;16.55;6.82;;;;;;;15.84;82.77;101634.28;5054284;28;20039;-65
2021/08/10 05:56:06;;;;;;;16.65;7.25;;;;;;;15.88;83.27;101620.69;5054738;28;20021;-65
2021/08/10 05:58:31;;;;;;;15.07;7.22;;;;;;;15.95;82.72;101623.88;5053419;28;20032;-64
2021/08/10 06:00:57;;;;;;;16.17;6.80;;;;;;;16.01;83.33;101631.56;5054733;28;20033;-62
2021/08/10 06:03:22;;;;;;;18.35;7.32;;;;;;;16.17;82.46;101626.22;5054066;28;20471;-65
2021/08/10 06:05:47;;;;;;;14.60;6.65;;;;;;;16.46;81.44;101629.06;5053152;28;20052;-65
2021/08/10 06:08:13;;;;;;;17.38;6.93;;;;;;;16.69;80.92;101630.41;5053956;28;20029;-65
2021/08/10 06:10:38;;;;;;;16.92;6.35;;;;;;;16.90;79.86;101634.59;5054342;28;20478;-66
2021/08/10 06:13:04;;;;;;;13.98;7.07;;;;;;;17.01;79.55;101634.84;5053269;28;20052;-62
2021/08/10 06:15:29;;;;;;;15.45;7.07;;;;;;;16.92;79.56;101641.63;5054434;28;20025;-62
2021/08/10 06:17:54;;;;;;;18.60;8.20;;;;;;;16.79;79.63;101637.88;5054467;28;20029;-63
2021/08/10 06:20:20;;;;;;;18.70;8.43;;;;;;;16.75;80.17;101636.34;5053680;28;20383;-63
2021/08/10 06:22:46;;;;;;;17.83;8.73;;;;;;;16.65;80.20;101638.69;5039759;28;20036;-64
2021/08/10 06:25:12;;;;;;;14.50;8.43;;;;;;;16.61;81.14;101643.38;5053106;28;20119;-63
2021/08/10 06:27:37;;;;;;;15.77;8.25;;;;;;;16.57;81.32;101646.31;5053049;28;20059;-64
2021/08/10 06:30:05;;;;;;;19.23;9.40;;;;;;;16.53;82.16;101640.25;5053725;28;20029;-64
2021/08/10 06:32:30;;;;;;;15.40;8.30;;;;;;;16.48;82.08;101637.88;5053719;28;20049;-62
2021/08/10 06:34:55;;;;;;;19.48;9.23;;;;;;;16.43;82.65;101642.59;5054082;28;20064;-65
2021/08/10 06:37:21;;;;;;;18.85;9.68;;;;;;;16.37;83.59;101632.28;5050860;28;20422;-62
2021/08/10 06:39:46;;;;;;;17.85;9.25;;;;;;;16.33;84.26;101644.06;5049642;28;20128;-63
2021/08/10 06:42:11;;;;;;;17.20;10.20;;;;;;;16.24;84.37;101647.25;5045744;28;20541;-65
2021/08/10 06:44:36;;;;;;;19.27;9.85;;;;;;;16.08;84.74;101644.59;5051018;28;20466;-62
2021/08/10 06:47:02;;;;;;;19.15;10.05;;;;;;;16.00;85.85;101653.03;5052144;28;20025;-63
2021/08/10 06:49:28;;;;;;;17.83;10.80;;;;;;;15.92;86.52;101644.56;5052824;28;20052;-63
2021/08/10 06:51:53;;;;;;;19.33;10.93;;;;;;;15.86;87.05;101648.44;5050246;28;20036;-65
2021/08/10 06:54:19;;;;;;;23.02;10.63;;;;;;;15.89;87.03;101642.91;5049944;28;20060;-65
2021/08/10 06:56:45;;;;;;;18.13;10.25;;;;;;;15.84;86.94;101651.19;5052432;28;20154;-65
2021/08/10 06:59:10;;;;;;;19.60;10.50;;;;;;;15.80;87.12;101659.41;5052033;28;20182;-64
2021/08/10 07:01:35;;;;;;;21.88;11.07;;;;;;;15.72;88.00;101652.66;5053227;28;20024;-66
2021/08/10 07:04:00;;;;;;;19.77;10.40;;;;;;;15.68;87.80;101650.25;5051225;28;20029;-64
2021/08/10 07:06:26;;;;;;;21.80;11.23;;;;;;;15.65;87.83;101655.75;5048378;28;20041;-63
2021/08/10 07:08:57;;;;;;;19.35;10.73;;;;;;;15.60;88.77;101653.34;5052289;28;20052;-64
2021/08/10 07:11:23;;;;;;;21.88;11.60;;;;;;;15.57;88.85;101650.81;5052144;28;20032;-65
2021/08/10 07:13:48;;;;;;;19.75;11.88;;;;;;;15.62;88.95;101647.91;5042551;28;20072;-64
2021/08/10 07:16:13;;;;;;;22.08;11.30;;;;;;;15.71;89.20;101660.75;5043710;28;20507;-65
2021/08/10 07:18:39;;;;;;;22.25;11.68;;;;;;;15.79;88.71;101661.19;5053012;28;20036;-66
2021/08/10 07:21:04;;;;;;;21.70;11.10;;;;;;;15.84;88.51;101655.66;5052847;28;20021;-65
2021/08/10 07:23:30;;;;;;;24.05;11.88;;;;;;;15.84;88.18;101656.53;5050221;28;20147;-64
2021/08/10 07:25:55;;;;;;;23.23;11.77;;;;;;;15.93;87.78;101656.97;5051427;28;20444;-66
2021/08/10 07:28:21;;;;;;;30.75;12.45;;;;;;;15.91;88.09;101651.72;5051328;28;20029;-64
2021/08/10 07:30:46;;;;;;;19.75;10.35;;;;;;;15.78;87.65;101659.50;5050410;28;20028;-65
2021/08/10 07:33:11;;;;;;;20.85;9.93;;;;;;;15.71;88.45;101664.28;5050112;28;20103;-64
2021/08/10 07:35:37;;;;;;;17.90;10.23;;;;;;;15.64;89.01;101676.25;5050252;28;20159;-60
2021/08/10 07:38:02;;;;;;;22.25;10.18;;;;;;;15.60;89.55;101677.38;5048884;28;20445;-62
2021/08/10 07:40:28;;;;;;;21.33;9.60;;;;;;;15.63;89.50;101681.69;5049199;28;20059;-60
2021/08/10 07:42:53;;;;;;;15.90;9.77;;;;;;;15.57;89.71;101666.81;5048321;28;20108;-61
2021/08/10 07:45:19;;;;;;;19.63;10.20;;;;;;;15.45;89.67;101664.78;5049311;28;20021;-65
2021/08/10 07:47:44;;;;;;;24.83;10.50;;;;;;;15.42;90.62;101675.66;5048829;28;20028;-62
2021/08/10 07:50:10;;;;;;;19.20;8.90;;;;;;;15.36;90.02;101659.00;5050940;28;20350;-62
2021/08/10 07:52:35;;;;;;;24.25;8.93;;;;;;;15.31;90.48;101661.06;5050641;28;20029;-64
2021/08/10 07:55:00;;;;;;;13.90;7.90;;;;;;;15.28;90.34;101666.56;5050861;28;20044;-60
2021/08/10 07:57:26;;;;;;;17.00;9.35;;;;;;;15.25;90.63;101685.38;5050974;28;20040;-63
2021/08/10 07:59:51;;;;;;;21.88;10.68;;;;;;;15.28;91.58;101682.56;5049766;28;20024;-60
2021/08/10 08:02:16;;;;;;;22.90;12.25;;;;;;;15.34;91.86;101676.91;5050532;28;20044;-61
2021/08/10 08:04:42;;;;;;;24.55;12.15;;;;;;;15.42;92.16;101678.31;5048786;28;20108;-62
2021/08/10 08:07:07;;;;;;;24.00;13.55;;;;;;;15.47;92.50;101677.13;5048719;28;20033;-59
2021/08/10 08:09:32;;;;;;;23.13;10.68;;;;;;;15.54;92.06;101681.19;5049193;28;20033;-59
2021/08/10 08:11:58;;;;;;;20.67;9.40;;;;;;;15.66;91.95;101673.50;5049134;28;20091;-59
2021/08/10 08:14:23;;;;;;;19.63;9.90;;;;;;;15.78;91.81;101678.19;5047844;28;20060;-60
2021/08/10 08:16:49;;;;;;;24.27;11.70;;;;;;;15.95;92.17;101671.13;5045847;28;20033;-60
2021/08/10 08:19:15;;;;;;;20.45;11.70;;;;;;;16.08;91.17;101677.50;5047855;28;20079;-61
2021/08/10 08:21:41;;;;;;;18.42;9.25;;;;;;;16.11;90.49;101677.31;5047984;28;20475;-61
2021/08/10 08:24:06;;;;;;;17.95;9.50;;;;;;;16.13;90.25;101670.09;5048693;28;20033;-59
2021/08/10 08:26:32;;;;;;;16.92;9.95;;;;;;;16.15;89.84;101670.00;5049104;28;20021;-60
2021/08/10 08:28:57;;;;;;;16.13;8.95;;;;;;;16.10;89.79;101666.72;5048055;28;20167;-60
2021/08/10 08:31:22;;;;;;;17.20;9.13;;;;;;;16.08;89.59;101674.81;5047206;28;20040;-62
2021/08/10 08:33:48;;;;;;;18.38;8.82;;;;;;;16.10;89.14;101680.09;5049252;28;20097;-60
2021/08/10 08:36:13;;;;;;;14.70;8.13;;;;;;;16.20;89.69;101686.63;5046729;28;20035;-62
2021/08/10 08:38:39;;;;;;;18.58;8.30;;;;;;;16.45;88.74;101691.50;5046664;28;20112;-59
2021/08/10 08:41:05;;;;;;;14.18;7.75;;;;;;;16.57;88.41;101689.06;5042591;28;20025;-59
2021/08/10 08:43:31;;;;;;;14.00;7.70;;;;;;;16.65;87.17;101687.69;5047156;28;20081;-58
2021/08/10 08:45:57;;;;;;;16.45;7.50;;;;;;;16.68;86.81;101681.31;5046271;28;20390;-61
2021/08/10 08:48:24;;;;;;;14.73;6.88;;;;;;;16.63;85.60;101678.88;5047601;28;20040;-61
2021/08/10 08:50:51;;;;;;;14.93;7.35;;;;;;;16.75;86.32;101673.78;5045726;28;20146;-62
2021/08/10 08:53:16;;;;;;;13.23;7.32;;;;;;;17.25;87.36;101694.09;5050768;28;20094;-61
2021/08/10 08:55:43;;;;;;;14.20;7.20;;;;;;;17.94;83.76;101686.38;5051464;28;20028;-60
2021/08/10 08:58:09;;;;;;;13.27;6.88;;;;;;;18.10;82.45;101680.88;5050647;28;20111;-62
2021/08/10 09:00:34;;;;;;;13.20;5.88;;;;;;;17.99;82.24;101686.06;5050112;28;20036;-59
2021/08/10 09:03:00;;;;;;;12.13;6.00;;;;;;;17.90;83.35;101684.78;5050620;28;20475;-60
2021/08/10 09:05:26;;;;;;;16.02;5.32;;;;;;;17.87;81.88;101679.63;5046655;28;20139;-63
2021/08/10 09:07:55;;;;;;;11.73;5.35;;;;;;;18.04;80.56;101683.09;5047375;28;20335;-60
2021/08/10 09:10:22;;;;;;;12.77;5.90;;;;;;;17.99;81.44;101686.06;5048862;28;20167;-61
2021/08/10 09:12:54;;;;;;;10.38;4.85;;;;;;;18.05;80.47;101682.16;5049267;28;20104;-60
2021/08/10 09:15:36;;;;;;;12.57;4.65;;;;;;;18.32;80.27;101691.09;5046816;28;20116;-62
2021/08/10 09:18:27;;;;;;;12.23;4.55;;;;;;;18.48;78.95;101685.63;5049630;28;20051;-58
2021/08/10 09:21:10;;;;;;;12.13;5.20;;;;;;;18.53;78.78;101688.00;5047944;28;20081;-60
2021/08/10 09:23:46;;;;;;;9.27;4.78;;;;;;;18.64;77.84;101690.88;5051116;28;20057;-60
2021/08/10 09:26:15;;;;;;;11.57;4.70;;;;;;;18.26;79.01;101688.84;5051393;28;20085;-61
2021/08/10 09:28:41;;;;;;;12.82;4.75;;;;;;;18.58;78.63;101688.56;5049598;28;20029;-60
2021/08/10 09:31:30;;;;;;;15.80;5.28;;;;;;;19.78;75.91;101703.81;5031775;28;20063;-60
2021/08/10 09:33:57;;;;;;;9.18;4.35;;;;;;;20.65;72.92;101699.47;5031163;28;20041;-61
2021/08/10 09:36:24;;;;;;;11.90;4.68;;;;;;;21.18;69.98;101697.28;5050571;28;20073;-62
2021/08/10 09:38:50;;;;;;;9.55;4.55;;;;;;;21.58;68.40;101699.59;5050664;28;20378;-64
2021/08/10 09:41:15;;;;;;;11.88;4.53;;;;;;;21.82;67.76;101701.38;5050386;28;20021;-64
2021/08/10 09:43:41;;;;;;;10.57;4.75;;;;;;;22.33;65.55;101693.72;5049745;28;20335;-61
2021/08/10 09:46:11;;;;;;;13.80;4.40;;;;;;;22.24;62.85;101698.91;5051222;28;20104;-61
2021/08/10 09:48:38;;;;;;;14.80;4.88;;;;;;;21.68;64.70;101698.91;5052293;28;20044;-62
2021/08/10 09:51:15;;;;;;;11.98;3.88;;;;;;;21.06;63.73;101700.91;5050540;28;20017;-61
2021/08/10 09:53:42;;;;;;;10.35;4.65;;;;;;;20.45;67.29;101704.50;5049927;28;20502;-62
2021/08/10 09:56:09;;;;;;;9.75;4.10;;;;;;;21.14;65.37;101705.72;5049935;28;20102;-62
2021/08/10 09:58:57;;;;;;;10.85;4.05;;;;;;;21.66;64.58;101707.09;5049453;28;20354;-62
2021/08/10 10:01:40;;;;;;;10.43;4.10;;;;;;;23.09;59.19;101685.69;5049227;28;20097;-62
2021/08/10 10:04:10;;;;;;;13.82;3.90;;;;;;;23.28;56.16;101698.50;5049692;28;20045;-61
2021/08/10 10:06:36;;;;;;;9.00;3.47;;;;;;;23.74;56.04;101701.78;5049976;28;20041;-63
2021/08/10 10:09:02;;;;;;;8.05;3.72;;;;;;;24.24;55.78;101701.03;5049748;28;20067;-61
2021/08/10 10:11:31;;;;;;;8.65;3.42;;;;;;;24.45;50.36;101697.38;5049622;28;20466;-62
2021/08/10 10:13:57;;;;;;;10.18;3.70;;;;;;;23.94;51.87;101693.78;5048580;28;20048;-63
2021/08/10 10:16:22;;;;;;;7.68;3.67;;;;;;;24.15;51.67;101699.16;5049677;28;20095;-62
2021/08/10 10:18:48;;;;;;;9.07;3.75;;;;;;;24.18;51.04;101704.28;5049297;28;20063;-62
2021/08/10 10:21:21;;;;;;;8.05;3.28;;;;;;;23.10;53.04;101698.22;5049070;28;20028;-62
2021/08/10 10:23:51;;;;;;;8.27;3.60;;;;;;;23.00;57.00;101695.41;5049155;28;20048;-62
2021/08/10 10:26:18;;;;;;;10.60;4.03;;;;;;;23.99;52.16;101683.41;5049152;28;20128;-64
2021/08/10 10:28:45;;;;;;;9.32;3.53;;;;;;;24.60;50.04;101695.97;5049105;28;20057;-62
2021/08/10 10:31:10;;;;;;;7.35;3.40;;;;;;;24.52;51.82;101702.09;5048785;28;20789;-62
2021/08/10 10:33:36;;;;;;;8.30;3.47;;;;;;;24.67;48.89;101704.44;5049311;28;20068;-61
2021/08/10 10:36:02;;;;;;;9.27;3.63;;;;;;;24.93;49.61;101699.31;5048542;28;20115;-60
2021/08/10 10:38:29;;;;;;;8.23;3.53;;;;;;;25.33;48.80;101702.88;5048428;28;20112;-62
2021/08/10 10:40:55;;;;;;;6.95;3.20;;;;;;;24.63;48.47;101701.13;5048506;28;20036;-61
2021/08/10 10:43:25;;;;;;;8.23;3.53;;;;;;;23.24;51.43;101697.91;5048787;28;20454;-61
2021/08/10 10:45:53;;;;;;;9.63;3.80;;;;;;;22.91;52.46;101705.16;5048595;28;20106;-61
2021/08/10 10:48:27;;;;;;;8.50;6.13;;;;;;;24.45;50.76;101697.38;5046947;28;20454;-61
2021/08/10 10:51:14;;;;;;;10.57;3.47;;;;;;;25.01;47.67;101696.78;5048239;28;20020;-62
2021/08/10 10:53:45;;;;;;;9.10;3.55;;;;;;;25.00;46.83;101707.72;5046625;28;20446;-61
2021/08/10 10:56:26;;;;;;;10.05;3.60;;;;;;;25.09;46.48;101708.72;5047520;28;20103;-61
2021/08/10 10:58:56;;;;;;;8.35;3.50;;;;;;;24.99;45.22;101706.03;5047237;28;20100;-61
2021/08/10 11:01:31;;;;;;;12.38;3.70;;;;;;;23.98;49.14;101712.34;5048182;28;20025;-62
2021/08/10 11:04:08;;;;;;;10.23;4.05;;;;;;;24.02;50.13;101710.22;5049299;28;20500;-62
2021/08/10 11:06:40;;;;;;;6.72;3.30;;;;;;;24.33;48.86;101705.59;5031787;28;20053;-60
2021/08/10 11:09:06;;;;;;;10.05;3.63;;;;;;;23.97;49.71;101707.91;5029445;28;20355;-62
2021/08/10 11:11:44;;;;;;;9.73;3.60;;;;;;;24.12;49.54;101712.94;5028165;28;20556;-60
2021/08/10 11:14:37;;;;;;;8.60;3.90;;;;;;;23.80;49.93;101719.31;5028406;28;20029;-61
2021/08/10 11:17:12;;;;;;;8.05;3.63;;;;;;;24.71;48.41;101703.16;5010019;28;20452;-60
2021/08/10 11:19:42;;;;;;;9.25;3.05;;;;;;;24.97;45.64;101702.59;5028207;28;20025;-65